Terminal Aerodrome Forecast
Issued by NWS

Current Version | Previous Version | Graphics & Text | Print | Product List | Glossary On
Versions: 1 2 3 4 5 6 7 8 9 10 11 12 13 14 15 16 17 18 19 20 21 22 23 24 25 26 27 28
000
FTUS41 KRLX 020247 AAA
TAFCKB
TAF AMD
KCKB 020247Z 0203/0224 00000KT P6SM SCT045
     FM020800 00000KT 4SM BR SCT045
     FM021000 00000KT 1/4SM FG VV001
     FM021200 00000KT 5SM BR FEW001
     FM021300 00000KT P6SM SCT045
     FM021700 VRB03KT P6SM VCTS BKN045CB
     FM022000 28004KT P6SM BKN045=

USA.gov is the U.S. government's official web portal to all federal, state and local government web resources and services.